Laceys Spring, Alabama
Current Conditions -  °F | °C
As of 4:58 PM on Tuesday 25 Nov 2014 (Local Time) from KHUA Reporting Station
Broken Clouds Broken Clouds  
Wind Chill: 10°   Ceiling: 14000
Heat Index: 10°   Visibility: 10mi
Dew Point: -2°   Wind: 8mph
Humidity: 44%   Direction: 310°NW
Pressure: 30.06"   Gusts: NA
Location:  34.53°N, 86.6°W
Report Text: KHUA 252258Z AUTO 31007KT 10SM BKN140 10/M02 A3006 RMK AO2 SLP183 T01001019
Loading
Personal Weather Stations






























Interactive Weather Map New forecast layout! Learn more

10-Day Weather Forecast

Advertisements
Track Severe Weather on mobile